sensor_id;sensor_type;location;lat;lon;timestamp;P1;durP1;ratioP1;P2;durP2;ratioP2
51614;SDS011;37695;52.960;6.188;2022-07-23T00:00:35;4.03;;;2.30;;
51614;SDS011;37695;52.960;6.188;2022-07-23T00:03:00;1.63;;;1.50;;
51614;SDS011;37695;52.960;6.188;2022-07-23T00:05:26;2.25;;;1.95;;
51614;SDS011;37695;52.960;6.188;2022-07-23T00:07:51;3.05;;;2.30;;
51614;SDS011;37695;52.960;6.188;2022-07-23T00:10:17;2.97;;;2.28;;
51614;SDS011;37695;52.960;6.188;2022-07-23T00:12:42;2.30;;;1.40;;
51614;SDS011;37695;52.960;6.188;2022-07-23T00:15:08;4.15;;;1.00;;
51614;SDS011;37695;52.960;6.188;2022-07-23T00:17:34;2.35;;;0.80;;
51614;SDS011;37695;52.960;6.188;2022-07-23T00:20:00;1.63;;;1.17;;
51614;SDS011;37695;52.960;6.188;2022-07-23T00:22:27;1.50;;;1.30;;
51614;SDS011;37695;52.960;6.188;2022-07-23T00:24:54;1.30;;;1.20;;
51614;SDS011;37695;52.960;6.188;2022-07-23T00:27:20;2.88;;;1.80;;
51614;SDS011;37695;52.960;6.188;2022-07-23T00:29:46;2.85;;;2.50;;
51614;SDS011;37695;52.960;6.188;2022-07-23T00:32:11;4.50;;;2.65;;
51614;SDS011;37695;52.960;6.188;2022-07-23T00:34:37;4.20;;;2.78;;
51614;SDS011;37695;52.960;6.188;2022-07-23T00:37:02;4.40;;;2.95;;
51614;SDS011;37695;52.960;6.188;2022-07-23T00:39:28;3.45;;;2.15;;
51614;SDS011;37695;52.960;6.188;2022-07-23T00:41:54;2.97;;;2.28;;
51614;SDS011;37695;52.960;6.188;2022-07-23T00:44:20;3.47;;;2.53;;
51614;SDS011;37695;52.960;6.188;2022-07-23T00:46:49;3.78;;;2.58;;
51614;SDS011;37695;52.960;6.188;2022-07-23T00:49:18;1.50;;;1.40;;
51614;SDS011;37695;52.960;6.188;2022-07-23T00:51:45;2.70;;;1.70;;
51614;SDS011;37695;52.960;6.188;2022-07-23T00:54:11;2.05;;;1.27;;
51614;SDS011;37695;52.960;6.188;2022-07-23T00:56:37;2.85;;;1.98;;
51614;SDS011;37695;52.960;6.188;2022-07-23T00:59:03;5.40;;;2.90;;
51614;SDS011;37695;52.960;6.188;2022-07-23T01:01:29;4.55;;;2.60;;
51614;SDS011;37695;52.960;6.188;2022-07-23T01:03:55;4.38;;;2.28;;
51614;SDS011;37695;52.960;6.188;2022-07-23T01:06:20;0.90;;;0.90;;
51614;SDS011;37695;52.960;6.188;2022-07-23T01:08:46;3.00;;;1.00;;
51614;SDS011;37695;52.960;6.188;2022-07-23T01:11:12;0.60;;;0.60;;
51614;SDS011;37695;52.960;6.188;2022-07-23T01:13:44;1.00;;;0.60;;
51614;SDS011;37695;52.960;6.188;2022-07-23T01:16:10;0.70;;;0.70;;
51614;SDS011;37695;52.960;6.188;2022-07-23T01:18:36;0.82;;;0.75;;
51614;SDS011;37695;52.960;6.188;2022-07-23T01:21:01;1.25;;;1.15;;
51614;SDS011;37695;52.960;6.188;2022-07-23T01:23:27;2.33;;;1.90;;
51614;SDS011;37695;52.960;6.188;2022-07-23T01:25:53;1.30;;;1.20;;
51614;SDS011;37695;52.960;6.188;2022-07-23T01:28:20;1.85;;;1.27;;
51614;SDS011;37695;52.960;6.188;2022-07-23T01:30:46;1.90;;;1.70;;
51614;SDS011;37695;52.960;6.188;2022-07-23T01:33:12;2.45;;;1.92;;
51614;SDS011;37695;52.960;6.188;2022-07-23T01:35:38;2.63;;;1.88;;
51614;SDS011;37695;52.960;6.188;2022-07-23T01:38:04;2.53;;;2.00;;
51614;SDS011;37695;52.960;6.188;2022-07-23T01:40:30;2.72;;;1.60;;
51614;SDS011;37695;52.960;6.188;2022-07-23T01:42:55;2.25;;;1.98;;
51614;SDS011;37695;52.960;6.188;2022-07-23T01:45:21;2.50;;;1.70;;
51614;SDS011;37695;52.960;6.188;2022-07-23T01:47:47;1.50;;;1.30;;
51614;SDS011;37695;52.960;6.188;2022-07-23T01:50:13;1.73;;;1.48;;
51614;SDS011;37695;52.960;6.188;2022-07-23T01:52:38;1.70;;;1.58;;
51614;SDS011;37695;52.960;6.188;2022-07-23T01:55:04;1.52;;;1.42;;
51614;SDS011;37695;52.960;6.188;2022-07-23T01:57:31;4.70;;;2.60;;
51614;SDS011;37695;52.960;6.188;2022-07-23T01:59:56;3.33;;;2.63;;
51614;SDS011;37695;52.960;6.188;2022-07-23T02:02:22;3.75;;;2.88;;
51614;SDS011;37695;52.960;6.188;2022-07-23T02:04:48;4.53;;;2.72;;
51614;SDS011;37695;52.960;6.188;2022-07-23T02:07:13;4.10;;;2.67;;
51614;SDS011;37695;52.960;6.188;2022-07-23T02:09:39;2.63;;;2.28;;
51614;SDS011;37695;52.960;6.188;2022-07-23T02:12:04;4.03;;;2.60;;
51614;SDS011;37695;52.960;6.188;2022-07-23T02:14:30;2.80;;;2.22;;
51614;SDS011;37695;52.960;6.188;2022-07-23T02:16:56;3.00;;;2.13;;
51614;SDS011;37695;52.960;6.188;2022-07-23T02:19:21;2.40;;;1.80;;
51614;SDS011;37695;52.960;6.188;2022-07-23T02:21:47;2.05;;;1.67;;
51614;SDS011;37695;52.960;6.188;2022-07-23T02:24:13;3.28;;;1.73;;
51614;SDS011;37695;52.960;6.188;2022-07-23T02:26:39;4.03;;;2.03;;
51614;SDS011;37695;52.960;6.188;2022-07-23T02:29:05;3.63;;;2.20;;
51614;SDS011;37695;52.960;6.188;2022-07-23T02:31:31;3.08;;;1.60;;
51614;SDS011;37695;52.960;6.188;2022-07-23T02:33:57;4.60;;;1.40;;
51614;SDS011;37695;52.960;6.188;2022-07-23T02:36:22;4.38;;;1.40;;
51614;SDS011;37695;52.960;6.188;2022-07-23T02:38:48;4.82;;;1.15;;
51614;SDS011;37695;52.960;6.188;2022-07-23T02:41:14;1.30;;;1.20;;
51614;SDS011;37695;52.960;6.188;2022-07-23T02:43:39;1.55;;;1.10;;
51614;SDS011;37695;52.960;6.188;2022-07-23T02:46:05;0.85;;;0.85;;
51614;SDS011;37695;52.960;6.188;2022-07-23T02:48:30;1.95;;;0.90;;
51614;SDS011;37695;52.960;6.188;2022-07-23T02:50:56;2.42;;;2.08;;
51614;SDS011;37695;52.960;6.188;2022-07-23T02:53:25;3.00;;;2.40;;
51614;SDS011;37695;52.960;6.188;2022-07-23T02:55:50;1.70;;;1.27;;
51614;SDS011;37695;52.960;6.188;2022-07-23T02:58:16;1.40;;;1.30;;
51614;SDS011;37695;52.960;6.188;2022-07-23T03:00:42;1.88;;;1.25;;
51614;SDS011;37695;52.960;6.188;2022-07-23T03:03:08;3.28;;;1.23;;
51614;SDS011;37695;52.960;6.188;2022-07-23T03:05:34;1.75;;;1.55;;
51614;SDS011;37695;52.960;6.188;2022-07-23T03:07:59;2.22;;;1.60;;
51614;SDS011;37695;52.960;6.188;2022-07-23T03:10:25;1.80;;;1.45;;
51614;SDS011;37695;52.960;6.188;2022-07-23T03:12:51;2.25;;;1.58;;
51614;SDS011;37695;52.960;6.188;2022-07-23T03:15:16;1.55;;;1.40;;
51614;SDS011;37695;52.960;6.188;2022-07-23T03:17:42;1.55;;;1.42;;
51614;SDS011;37695;52.960;6.188;2022-07-23T03:20:08;2.50;;;1.90;;
51614;SDS011;37695;52.960;6.188;2022-07-23T03:22:34;4.32;;;1.70;;
51614;SDS011;37695;52.960;6.188;2022-07-23T03:24:59;3.97;;;2.10;;
51614;SDS011;37695;52.960;6.188;2022-07-23T03:27:27;3.13;;;1.40;;
51614;SDS011;37695;52.960;6.188;2022-07-23T03:29:54;2.17;;;1.70;;
51614;SDS011;37695;52.960;6.188;2022-07-23T03:32:21;2.05;;;1.67;;
51614;SDS011;37695;52.960;6.188;2022-07-23T03:34:48;2.47;;;1.65;;
51614;SDS011;37695;52.960;6.188;2022-07-23T03:37:13;1.25;;;1.13;;
51614;SDS011;37695;52.960;6.188;2022-07-23T03:39:39;0.73;;;0.73;;
51614;SDS011;37695;52.960;6.188;2022-07-23T03:42:05;0.80;;;0.80;;
51614;SDS011;37695;52.960;6.188;2022-07-23T03:44:31;0.65;;;0.65;;
51614;SDS011;37695;52.960;6.188;2022-07-23T03:46:57;0.77;;;0.77;;
51614;SDS011;37695;52.960;6.188;2022-07-23T03:49:22;1.20;;;1.10;;
51614;SDS011;37695;52.960;6.188;2022-07-23T03:51:48;2.00;;;1.63;;
51614;SDS011;37695;52.960;6.188;2022-07-23T03:54:14;4.53;;;2.00;;
51614;SDS011;37695;52.960;6.188;2022-07-23T03:56:39;8.88;;;2.13;;
51614;SDS011;37695;52.960;6.188;2022-07-23T03:59:05;1.58;;;1.48;;
51614;SDS011;37695;52.960;6.188;2022-07-23T04:01:31;1.98;;;1.63;;
51614;SDS011;37695;52.960;6.188;2022-07-23T04:03:56;2.83;;;1.80;;
51614;SDS011;37695;52.960;6.188;2022-07-23T04:06:22;3.35;;;1.90;;
51614;SDS011;37695;52.960;6.188;2022-07-23T04:08:47;3.70;;;2.10;;
51614;SDS011;37695;52.960;6.188;2022-07-23T04:11:13;2.92;;;2.20;;
51614;SDS011;37695;52.960;6.188;2022-07-23T04:13:39;2.75;;;1.63;;
51614;SDS011;37695;52.960;6.188;2022-07-23T04:16:04;2.28;;;1.90;;
51614;SDS011;37695;52.960;6.188;2022-07-23T04:18:31;2.65;;;1.63;;
51614;SDS011;37695;52.960;6.188;2022-07-23T04:20:57;2.08;;;1.60;;
51614;SDS011;37695;52.960;6.188;2022-07-23T04:23:22;2.25;;;1.70;;
51614;SDS011;37695;52.960;6.188;2022-07-23T04:25:48;3.22;;;1.85;;
51614;SDS011;37695;52.960;6.188;2022-07-23T04:28:14;2.50;;;2.03;;
51614;SDS011;37695;52.960;6.188;2022-07-23T04:30:39;2.30;;;1.80;;
51614;SDS011;37695;52.960;6.188;2022-07-23T04:33:05;2.40;;;2.10;;
51614;SDS011;37695;52.960;6.188;2022-07-23T04:35:32;4.47;;;2.72;;
51614;SDS011;37695;52.960;6.188;2022-07-23T04:37:58;4.28;;;2.40;;
51614;SDS011;37695;52.960;6.188;2022-07-23T04:40:24;3.25;;;2.00;;
51614;SDS011;37695;52.960;6.188;2022-07-23T04:42:50;3.15;;;2.40;;
51614;SDS011;37695;52.960;6.188;2022-07-23T04:45:16;3.70;;;2.45;;
51614;SDS011;37695;52.960;6.188;2022-07-23T04:47:41;3.65;;;2.50;;
51614;SDS011;37695;52.960;6.188;2022-07-23T04:50:07;3.67;;;2.30;;
51614;SDS011;37695;52.960;6.188;2022-07-23T04:52:33;2.67;;;2.15;;
51614;SDS011;37695;52.960;6.188;2022-07-23T04:54:58;3.80;;;2.40;;
51614;SDS011;37695;52.960;6.188;2022-07-23T04:57:24;3.63;;;2.35;;
51614;SDS011;37695;52.960;6.188;2022-07-23T04:59:49;3.40;;;2.53;;
51614;SDS011;37695;52.960;6.188;2022-07-23T05:02:15;3.53;;;2.50;;
51614;SDS011;37695;52.960;6.188;2022-07-23T05:04:41;3.17;;;2.45;;
51614;SDS011;37695;52.960;6.188;2022-07-23T05:07:06;3.95;;;2.50;;
51614;SDS011;37695;52.960;6.188;2022-07-23T05:09:32;4.55;;;2.47;;
51614;SDS011;37695;52.960;6.188;2022-07-23T05:11:57;3.55;;;2.30;;
51614;SDS011;37695;52.960;6.188;2022-07-23T05:14:23;4.22;;;2.92;;
51614;SDS011;37695;52.960;6.188;2022-07-23T05:16:48;4.28;;;2.75;;
51614;SDS011;37695;52.960;6.188;2022-07-23T05:19:14;5.15;;;2.80;;
51614;SDS011;37695;52.960;6.188;2022-07-23T05:21:40;3.50;;;2.58;;
51614;SDS011;37695;52.960;6.188;2022-07-23T05:24:05;5.95;;;2.70;;
51614;SDS011;37695;52.960;6.188;2022-07-23T05:26:31;4.85;;;3.00;;
51614;SDS011;37695;52.960;6.188;2022-07-23T05:28:57;5.03;;;3.10;;
51614;SDS011;37695;52.960;6.188;2022-07-23T05:31:22;5.47;;;3.38;;
51614;SDS011;37695;52.960;6.188;2022-07-23T05:33:48;4.43;;;3.10;;
51614;SDS011;37695;52.960;6.188;2022-07-23T05:36:13;4.72;;;3.17;;
51614;SDS011;37695;52.960;6.188;2022-07-23T05:38:39;4.60;;;3.05;;
51614;SDS011;37695;52.960;6.188;2022-07-23T05:41:05;4.20;;;3.00;;
51614;SDS011;37695;52.960;6.188;2022-07-23T05:43:30;3.83;;;2.88;;
51614;SDS011;37695;52.960;6.188;2022-07-23T05:45:56;5.22;;;3.25;;
51614;SDS011;37695;52.960;6.188;2022-07-23T05:48:21;5.68;;;3.17;;
51614;SDS011;37695;52.960;6.188;2022-07-23T05:50:47;7.90;;;4.03;;
51614;SDS011;37695;52.960;6.188;2022-07-23T05:53:13;4.97;;;3.45;;
51614;SDS011;37695;52.960;6.188;2022-07-23T05:55:39;5.60;;;3.55;;
51614;SDS011;37695;52.960;6.188;2022-07-23T05:58:04;6.07;;;3.28;;
51614;SDS011;37695;52.960;6.188;2022-07-23T06:00:30;5.85;;;3.30;;
51614;SDS011;37695;52.960;6.188;2022-07-23T06:02:55;4.43;;;2.95;;
51614;SDS011;37695;52.960;6.188;2022-07-23T06:05:21;4.90;;;3.15;;
51614;SDS011;37695;52.960;6.188;2022-07-23T06:07:47;5.38;;;3.33;;
51614;SDS011;37695;52.960;6.188;2022-07-23T06:10:13;4.60;;;2.85;;
51614;SDS011;37695;52.960;6.188;2022-07-23T06:12:38;3.90;;;2.60;;
51614;SDS011;37695;52.960;6.188;2022-07-23T06:15:04;4.70;;;2.80;;
51614;SDS011;37695;52.960;6.188;2022-07-23T06:17:30;4.53;;;2.50;;
51614;SDS011;37695;52.960;6.188;2022-07-23T06:19:56;3.78;;;2.75;;
51614;SDS011;37695;52.960;6.188;2022-07-23T06:22:22;5.28;;;2.60;;
51614;SDS011;37695;52.960;6.188;2022-07-23T06:24:48;3.13;;;2.10;;
51614;SDS011;37695;52.960;6.188;2022-07-23T06:27:14;3.97;;;2.05;;
51614;SDS011;37695;52.960;6.188;2022-07-23T06:29:40;3.20;;;2.20;;
51614;SDS011;37695;52.960;6.188;2022-07-23T06:32:06;2.55;;;1.73;;
51614;SDS011;37695;52.960;6.188;2022-07-23T06:34:32;2.92;;;1.77;;
51614;SDS011;37695;52.960;6.188;2022-07-23T06:36:57;3.03;;;1.60;;
51614;SDS011;37695;52.960;6.188;2022-07-23T06:39:23;2.65;;;1.67;;
51614;SDS011;37695;52.960;6.188;2022-07-23T06:41:49;2.05;;;1.50;;
51614;SDS011;37695;52.960;6.188;2022-07-23T06:44:14;1.77;;;1.35;;
51614;SDS011;37695;52.960;6.188;2022-07-23T06:46:40;2.13;;;1.30;;
51614;SDS011;37695;52.960;6.188;2022-07-23T06:49:06;2.90;;;1.55;;
51614;SDS011;37695;52.960;6.188;2022-07-23T06:51:32;2.40;;;1.52;;
51614;SDS011;37695;52.960;6.188;2022-07-23T06:53:57;2.28;;;1.45;;
51614;SDS011;37695;52.960;6.188;2022-07-23T06:56:23;5.80;;;1.27;;
51614;SDS011;37695;52.960;6.188;2022-07-23T06:58:49;3.63;;;1.08;;
51614;SDS011;37695;52.960;6.188;2022-07-23T07:01:14;1.13;;;0.80;;
51614;SDS011;37695;52.960;6.188;2022-07-23T07:03:40;2.40;;;0.98;;
51614;SDS011;37695;52.960;6.188;2022-07-23T07:06:06;1.98;;;0.90;;
51614;SDS011;37695;52.960;6.188;2022-07-23T07:08:31;3.22;;;1.00;;
51614;SDS011;37695;52.960;6.188;2022-07-23T07:10:57;0.82;;;0.82;;
51614;SDS011;37695;52.960;6.188;2022-07-23T07:13:22;1.63;;;0.90;;
51614;SDS011;37695;52.960;6.188;2022-07-23T07:15:48;1.55;;;0.90;;
51614;SDS011;37695;52.960;6.188;2022-07-23T07:18:13;1.55;;;1.13;;
51614;SDS011;37695;52.960;6.188;2022-07-23T07:20:39;1.48;;;0.93;;
51614;SDS011;37695;52.960;6.188;2022-07-23T07:23:04;1.05;;;0.80;;
51614;SDS011;37695;52.960;6.188;2022-07-23T07:25:30;1.38;;;0.90;;
51614;SDS011;37695;52.960;6.188;2022-07-23T07:27:56;1.65;;;0.88;;
51614;SDS011;37695;52.960;6.188;2022-07-23T07:30:21;2.88;;;1.00;;
51614;SDS011;37695;52.960;6.188;2022-07-23T07:32:47;2.13;;;0.90;;
51614;SDS011;37695;52.960;6.188;2022-07-23T07:35:12;1.67;;;0.93;;
51614;SDS011;37695;52.960;6.188;2022-07-23T07:37:38;1.50;;;0.90;;
51614;SDS011;37695;52.960;6.188;2022-07-23T07:40:04;1.42;;;0.70;;
51614;SDS011;37695;52.960;6.188;2022-07-23T07:42:29;0.75;;;0.68;;
51614;SDS011;37695;52.960;6.188;2022-07-23T07:44:57;1.88;;;0.77;;
51614;SDS011;37695;52.960;6.188;2022-07-23T07:47:22;1.27;;;0.77;;
51614;SDS011;37695;52.960;6.188;2022-07-23T07:49:48;0.80;;;0.47;;
51614;SDS011;37695;52.960;6.188;2022-07-23T07:52:14;0.73;;;0.60;;
51614;SDS011;37695;52.960;6.188;2022-07-23T07:54:39;1.35;;;0.70;;
51614;SDS011;37695;52.960;6.188;2022-07-23T07:57:05;1.13;;;0.70;;
51614;SDS011;37695;52.960;6.188;2022-07-23T07:59:30;0.60;;;0.50;;
51614;SDS011;37695;52.960;6.188;2022-07-23T08:01:56;0.98;;;0.52;;
51614;SDS011;37695;52.960;6.188;2022-07-23T08:04:21;1.23;;;0.60;;
51614;SDS011;37695;52.960;6.188;2022-07-23T08:06:47;1.05;;;0.60;;
51614;SDS011;37695;52.960;6.188;2022-07-23T08:09:12;1.10;;;0.68;;
51614;SDS011;37695;52.960;6.188;2022-07-23T08:11:38;1.08;;;0.73;;
51614;SDS011;37695;52.960;6.188;2022-07-23T08:14:04;0.73;;;0.60;;
51614;SDS011;37695;52.960;6.188;2022-07-23T08:16:29;2.55;;;0.95;;
51614;SDS011;37695;52.960;6.188;2022-07-23T08:18:55;0.47;;;0.47;;
51614;SDS011;37695;52.960;6.188;2022-07-23T08:21:20;1.33;;;0.77;;
51614;SDS011;37695;52.960;6.188;2022-07-23T08:23:46;1.38;;;0.70;;
51614;SDS011;37695;52.960;6.188;2022-07-23T08:26:12;1.15;;;0.60;;
51614;SDS011;37695;52.960;6.188;2022-07-23T08:28:37;0.60;;;0.57;;
51614;SDS011;37695;52.960;6.188;2022-07-23T08:31:03;1.65;;;0.82;;
51614;SDS011;37695;52.960;6.188;2022-07-23T08:33:30;1.25;;;0.80;;
51614;SDS011;37695;52.960;6.188;2022-07-23T08:35:56;0.50;;;0.50;;
51614;SDS011;37695;52.960;6.188;2022-07-23T08:38:22;2.35;;;0.60;;
51614;SDS011;37695;52.960;6.188;2022-07-23T08:40:51;2.75;;;0.85;;
51614;SDS011;37695;52.960;6.188;2022-07-23T08:43:20;0.70;;;0.57;;
51614;SDS011;37695;52.960;6.188;2022-07-23T08:45:48;1.67;;;0.60;;
51614;SDS011;37695;52.960;6.188;2022-07-23T08:48:15;1.60;;;0.73;;
51614;SDS011;37695;52.960;6.188;2022-07-23T08:50:43;1.33;;;0.70;;
51614;SDS011;37695;52.960;6.188;2022-07-23T08:53:14;1.23;;;0.70;;
51614;SDS011;37695;52.960;6.188;2022-07-23T08:55:43;1.67;;;0.65;;
51614;SDS011;37695;52.960;6.188;2022-07-23T08:58:12;2.20;;;0.68;;
51614;SDS011;37695;52.960;6.188;2022-07-23T09:00:38;0.93;;;0.60;;
51614;SDS011;37695;52.960;6.188;2022-07-23T09:03:04;0.50;;;0.50;;
51614;SDS011;37695;52.960;6.188;2022-07-23T09:05:29;2.05;;;0.63;;
51614;SDS011;37695;52.960;6.188;2022-07-23T09:08:05;1.17;;;0.60;;
51614;SDS011;37695;52.960;6.188;2022-07-23T09:10:42;0.88;;;0.70;;
51614;SDS011;37695;52.960;6.188;2022-07-23T09:13:24;0.50;;;0.45;;
51614;SDS011;37695;52.960;6.188;2022-07-23T09:16:16;0.95;;;0.57;;
51614;SDS011;37695;52.960;6.188;2022-07-23T09:18:56;1.05;;;0.70;;
51614;SDS011;37695;52.960;6.188;2022-07-23T09:21:30;1.38;;;0.90;;
51614;SDS011;37695;52.960;6.188;2022-07-23T09:24:00;1.75;;;0.95;;
51614;SDS011;37695;52.960;6.188;2022-07-23T09:29:13;2.67;;;0.80;;
51614;SDS011;37695;52.960;6.188;2022-07-23T09:31:51;1.65;;;0.90;;
51614;SDS011;37695;52.960;6.188;2022-07-23T09:34:31;0.75;;;0.70;;
51614;SDS011;37695;52.960;6.188;2022-07-23T09:39:43;1.10;;;0.68;;
51614;SDS011;37695;52.960;6.188;2022-07-23T09:42:13;1.13;;;0.73;;
51614;SDS011;37695;52.960;6.188;2022-07-23T09:44:41;2.05;;;0.70;;
51614;SDS011;37695;52.960;6.188;2022-07-23T09:47:08;2.17;;;0.90;;
51614;SDS011;37695;52.960;6.188;2022-07-23T09:49:34;1.80;;;0.90;;
51614;SDS011;37695;52.960;6.188;2022-07-23T09:52:00;0.80;;;0.80;;
51614;SDS011;37695;52.960;6.188;2022-07-23T09:54:33;1.58;;;0.90;;
51614;SDS011;37695;52.960;6.188;2022-07-23T09:57:11;2.35;;;0.93;;
51614;SDS011;37695;52.960;6.188;2022-07-23T09:59:41;0.93;;;0.60;;
51614;SDS011;37695;52.960;6.188;2022-07-23T10:02:09;1.05;;;0.82;;
51614;SDS011;37695;52.960;6.188;2022-07-23T10:04:37;0.98;;;0.85;;
51614;SDS011;37695;52.960;6.188;2022-07-23T10:07:04;1.52;;;0.90;;
51614;SDS011;37695;52.960;6.188;2022-07-23T10:09:36;0.65;;;0.63;;
51614;SDS011;37695;52.960;6.188;2022-07-23T10:12:08;0.90;;;0.70;;
51614;SDS011;37695;52.960;6.188;2022-07-23T10:14:56;1.77;;;0.82;;
51614;SDS011;37695;52.960;6.188;2022-07-23T10:17:22;2.03;;;0.65;;
51614;SDS011;37695;52.960;6.188;2022-07-23T10:19:48;2.28;;;1.00;;
51614;SDS011;37695;52.960;6.188;2022-07-23T10:22:14;2.25;;;0.80;;
51614;SDS011;37695;52.960;6.188;2022-07-23T10:35:50;1.55;;;0.88;;
51614;SDS011;37695;52.960;6.188;2022-07-23T10:38:37;2.22;;;1.05;;
51614;SDS011;37695;52.960;6.188;2022-07-23T10:41:05;2.22;;;1.10;;
51614;SDS011;37695;52.960;6.188;2022-07-23T10:43:30;1.55;;;1.20;;
51614;SDS011;37695;52.960;6.188;2022-07-23T10:49:21;1.80;;;1.10;;
51614;SDS011;37695;52.960;6.188;2022-07-23T10:57:51;1.60;;;1.17;;
51614;SDS011;37695;52.960;6.188;2022-07-23T11:00:20;1.90;;;1.20;;
51614;SDS011;37695;52.960;6.188;2022-07-23T11:02:48;1.75;;;1.20;;
51614;SDS011;37695;52.960;6.188;2022-07-23T11:05:16;2.28;;;1.17;;
51614;SDS011;37695;52.960;6.188;2022-07-23T11:34:42;2.08;;;1.40;;
51614;SDS011;37695;52.960;6.188;2022-07-23T11:37:12;2.13;;;1.35;;
51614;SDS011;37695;52.960;6.188;2022-07-23T11:39:55;3.05;;;1.63;;
51614;SDS011;37695;52.960;6.188;2022-07-23T11:42:21;2.25;;;1.38;;
51614;SDS011;37695;52.960;6.188;2022-07-23T11:44:49;2.97;;;1.50;;
51614;SDS011;37695;52.960;6.188;2022-07-23T11:47:15;2.10;;;1.40;;
51614;SDS011;37695;52.960;6.188;2022-07-23T11:49:57;2.15;;;1.35;;
51614;SDS011;37695;52.960;6.188;2022-07-23T11:52:24;2.63;;;1.20;;
51614;SDS011;37695;52.960;6.188;2022-07-23T11:54:58;1.33;;;1.08;;
51614;SDS011;37695;52.960;6.188;2022-07-23T11:57:27;1.52;;;1.15;;
51614;SDS011;37695;52.960;6.188;2022-07-23T12:00:05;3.92;;;1.50;;
51614;SDS011;37695;52.960;6.188;2022-07-23T12:02:37;2.97;;;1.40;;
51614;SDS011;37695;52.960;6.188;2022-07-23T12:05:07;1.88;;;1.20;;
51614;SDS011;37695;52.960;6.188;2022-07-23T12:07:39;1.27;;;1.17;;
51614;SDS011;37695;52.960;6.188;2022-07-23T12:10:10;2.78;;;1.40;;
51614;SDS011;37695;52.960;6.188;2022-07-23T12:15:13;3.00;;;1.20;;
51614;SDS011;37695;52.960;6.188;2022-07-23T12:17:40;2.35;;;1.35;;
51614;SDS011;37695;52.960;6.188;2022-07-23T12:20:08;1.98;;;1.17;;
51614;SDS011;37695;52.960;6.188;2022-07-23T12:22:39;1.70;;;1.25;;
51614;SDS011;37695;52.960;6.188;2022-07-23T12:27:36;1.58;;;1.30;;
51614;SDS011;37695;52.960;6.188;2022-07-23T12:30:15;2.78;;;1.35;;
51614;SDS011;37695;52.960;6.188;2022-07-23T12:32:46;1.88;;;1.17;;
51614;SDS011;37695;52.960;6.188;2022-07-23T12:35:13;2.80;;;1.40;;
51614;SDS011;37695;52.960;6.188;2022-07-23T12:37:39;2.72;;;1.55;;
51614;SDS011;37695;52.960;6.188;2022-07-23T12:40:27;2.10;;;1.20;;
51614;SDS011;37695;52.960;6.188;2022-07-23T12:43:19;2.25;;;1.00;;
51614;SDS011;37695;52.960;6.188;2022-07-23T12:45:46;1.98;;;1.13;;
51614;SDS011;37695;52.960;6.188;2022-07-23T12:48:26;1.58;;;1.30;;
51614;SDS011;37695;52.960;6.188;2022-07-23T12:53:33;2.13;;;1.20;;
51614;SDS011;37695;52.960;6.188;2022-07-23T12:56:14;3.17;;;1.30;;
51614;SDS011;37695;52.960;6.188;2022-07-23T12:58:51;4.32;;;1.30;;
51614;SDS011;37695;52.960;6.188;2022-07-23T13:03:54;2.40;;;1.42;;
51614;SDS011;37695;52.960;6.188;2022-07-23T13:06:24;3.65;;;1.10;;
51614;SDS011;37695;52.960;6.188;2022-07-23T13:08:52;2.05;;;1.13;;
51614;SDS011;37695;52.960;6.188;2022-07-23T13:11:17;4.18;;;1.40;;
51614;SDS011;37695;52.960;6.188;2022-07-23T13:13:43;1.80;;;1.10;;
51614;SDS011;37695;52.960;6.188;2022-07-23T13:16:09;1.27;;;1.10;;
51614;SDS011;37695;52.960;6.188;2022-07-23T13:18:34;3.10;;;1.30;;
51614;SDS011;37695;52.960;6.188;2022-07-23T13:21:00;2.40;;;1.40;;
51614;SDS011;37695;52.960;6.188;2022-07-23T13:23:26;4.75;;;1.40;;
51614;SDS011;37695;52.960;6.188;2022-07-23T13:25:52;1.60;;;1.20;;
51614;SDS011;37695;52.960;6.188;2022-07-23T13:28:23;1.95;;;1.30;;
51614;SDS011;37695;52.960;6.188;2022-07-23T13:30:49;2.70;;;1.25;;
51614;SDS011;37695;52.960;6.188;2022-07-23T13:33:20;2.85;;;1.40;;
51614;SDS011;37695;52.960;6.188;2022-07-23T13:35:47;1.45;;;1.13;;
51614;SDS011;37695;52.960;6.188;2022-07-23T13:38:13;1.10;;;1.00;;
51614;SDS011;37695;52.960;6.188;2022-07-23T13:40:40;1.65;;;1.13;;
51614;SDS011;37695;52.960;6.188;2022-07-23T13:43:08;1.20;;;1.10;;
51614;SDS011;37695;52.960;6.188;2022-07-23T13:45:35;1.52;;;1.27;;
51614;SDS011;37695;52.960;6.188;2022-07-23T13:48:01;1.50;;;1.00;;
51614;SDS011;37695;52.960;6.188;2022-07-23T13:50:27;1.75;;;1.38;;
51614;SDS011;37695;52.960;6.188;2022-07-23T13:52:53;2.95;;;1.30;;
51614;SDS011;37695;52.960;6.188;2022-07-23T13:55:18;2.63;;;1.27;;
51614;SDS011;37695;52.960;6.188;2022-07-23T13:57:44;2.80;;;1.13;;
51614;SDS011;37695;52.960;6.188;2022-07-23T14:00:10;2.45;;;1.35;;
51614;SDS011;37695;52.960;6.188;2022-07-23T14:02:37;2.20;;;1.35;;
51614;SDS011;37695;52.960;6.188;2022-07-23T14:05:08;1.77;;;1.10;;
51614;SDS011;37695;52.960;6.188;2022-07-23T14:07:35;3.28;;;1.50;;
51614;SDS011;37695;52.960;6.188;2022-07-23T14:10:02;2.33;;;1.15;;
51614;SDS011;37695;52.960;6.188;2022-07-23T14:12:29;1.65;;;1.10;;
51614;SDS011;37695;52.960;6.188;2022-07-23T14:14:55;2.95;;;1.20;;
51614;SDS011;37695;52.960;6.188;2022-07-23T14:17:21;3.08;;;1.15;;
51614;SDS011;37695;52.960;6.188;2022-07-23T14:19:47;2.08;;;1.10;;
51614;SDS011;37695;52.960;6.188;2022-07-23T14:22:13;2.45;;;1.20;;
51614;SDS011;37695;52.960;6.188;2022-07-23T14:24:38;1.33;;;1.20;;
51614;SDS011;37695;52.960;6.188;2022-07-23T14:27:04;3.90;;;1.17;;
51614;SDS011;37695;52.960;6.188;2022-07-23T14:29:30;2.10;;;1.13;;
51614;SDS011;37695;52.960;6.188;2022-07-23T14:31:56;1.75;;;1.10;;
51614;SDS011;37695;52.960;6.188;2022-07-23T14:34:23;1.70;;;1.30;;
51614;SDS011;37695;52.960;6.188;2022-07-23T14:36:50;1.70;;;1.30;;
51614;SDS011;37695;52.960;6.188;2022-07-23T14:39:15;1.70;;;1.30;;
51614;SDS011;37695;52.960;6.188;2022-07-23T14:41:41;1.83;;;1.10;;
51614;SDS011;37695;52.960;6.188;2022-07-23T14:44:07;1.75;;;1.15;;
51614;SDS011;37695;52.960;6.188;2022-07-23T14:46:32;1.92;;;1.20;;
51614;SDS011;37695;52.960;6.188;2022-07-23T14:48:58;1.92;;;1.10;;
51614;SDS011;37695;52.960;6.188;2022-07-23T14:51:24;1.95;;;1.10;;
51614;SDS011;37695;52.960;6.188;2022-07-23T14:53:49;1.77;;;1.17;;
51614;SDS011;37695;52.960;6.188;2022-07-23T14:56:15;2.80;;;1.30;;
51614;SDS011;37695;52.960;6.188;2022-07-23T14:58:42;2.13;;;1.40;;
51614;SDS011;37695;52.960;6.188;2022-07-23T15:01:07;1.73;;;1.40;;
51614;SDS011;37695;52.960;6.188;2022-07-23T15:03:33;2.30;;;1.00;;
51614;SDS011;37695;52.960;6.188;2022-07-23T15:05:59;1.63;;;1.10;;
51614;SDS011;37695;52.960;6.188;2022-07-23T15:08:24;4.03;;;1.10;;
51614;SDS011;37695;52.960;6.188;2022-07-23T15:10:50;2.40;;;1.20;;
51614;SDS011;37695;52.960;6.188;2022-07-23T15:13:16;2.67;;;1.40;;
51614;SDS011;37695;52.960;6.188;2022-07-23T15:15:42;2.17;;;1.10;;
51614;SDS011;37695;52.960;6.188;2022-07-23T15:18:07;1.80;;;1.10;;
51614;SDS011;37695;52.960;6.188;2022-07-23T15:20:33;1.63;;;1.08;;
51614;SDS011;37695;52.960;6.188;2022-07-23T15:22:59;1.33;;;1.10;;
51614;SDS011;37695;52.960;6.188;2022-07-23T15:25:24;2.22;;;1.20;;
51614;SDS011;37695;52.960;6.188;2022-07-23T15:27:50;1.88;;;1.30;;
51614;SDS011;37695;52.960;6.188;2022-07-23T15:30:15;2.90;;;1.35;;
51614;SDS011;37695;52.960;6.188;2022-07-23T15:32:41;2.50;;;1.20;;
51614;SDS011;37695;52.960;6.188;2022-07-23T15:35:07;2.60;;;1.30;;
51614;SDS011;37695;52.960;6.188;2022-07-23T15:37:33;2.25;;;1.50;;
51614;SDS011;37695;52.960;6.188;2022-07-23T15:39:59;3.00;;;1.10;;
51614;SDS011;37695;52.960;6.188;2022-07-23T15:42:25;2.13;;;1.30;;
51614;SDS011;37695;52.960;6.188;2022-07-23T15:44:51;1.80;;;1.20;;
51614;SDS011;37695;52.960;6.188;2022-07-23T15:47:17;2.92;;;1.42;;
51614;SDS011;37695;52.960;6.188;2022-07-23T15:49:43;1.88;;;1.25;;